createdAt,value
2023-01-13T00:00:32.721Z,395.00
2023-01-13T00:01:32.666Z,395.00
2023-01-13T00:02:32.685Z,396.00
2023-01-13T00:03:32.642Z,397.00
2023-01-13T00:04:32.685Z,394.00
2023-01-13T00:05:32.622Z,393.00
2023-01-13T00:06:32.613Z,395.00
2023-01-13T00:07:32.614Z,395.00
2023-01-13T00:08:32.589Z,398.00
2023-01-13T00:09:32.594Z,399.00
2023-01-13T00:10:32.582Z,398.00
2023-01-13T00:11:32.569Z,398.00
2023-01-13T00:12:32.574Z,399.00
2023-01-13T00:13:32.551Z,399.00
2023-01-13T00:14:32.549Z,399.00
2023-01-13T00:15:32.543Z,399.00
2023-01-13T00:16:32.521Z,402.00
2023-01-13T00:17:32.520Z,403.00
2023-01-13T00:18:32.500Z,401.00
2023-01-13T00:19:32.506Z,398.00
2023-01-13T00:20:32.494Z,397.00
2023-01-13T00:21:32.494Z,395.00
2023-01-13T00:22:32.485Z,394.00
2023-01-13T00:23:32.477Z,393.00
2023-01-13T00:24:32.469Z,392.00
2023-01-13T00:25:32.469Z,391.00
2023-01-13T00:26:32.456Z,391.00
2023-01-13T00:27:32.463Z,393.00
2023-01-13T00:28:32.441Z,389.00
2023-01-13T00:29:32.429Z,384.00
2023-01-13T00:30:32.437Z,384.00
2023-01-13T00:31:32.490Z,385.00
2023-01-13T00:32:32.412Z,384.00
2023-01-13T00:33:32.409Z,384.00
2023-01-13T00:34:32.403Z,386.00
2023-01-13T00:35:32.396Z,387.00
2023-01-13T00:36:32.415Z,385.00
2023-01-13T00:37:32.378Z,385.00
2023-01-13T00:38:32.373Z,387.00
2023-01-13T00:39:32.366Z,385.00
2023-01-13T00:40:32.381Z,386.00
2023-01-13T00:41:32.355Z,387.00
2023-01-13T00:42:32.345Z,385.00
2023-01-13T00:43:32.341Z,386.00
2023-01-13T00:44:32.338Z,383.00
2023-01-13T00:45:32.329Z,384.00
2023-01-13T00:46:32.343Z,383.00
2023-01-13T00:47:32.318Z,381.00
2023-01-13T00:48:32.325Z,382.00
2023-01-13T00:49:32.300Z,381.00
2023-01-13T00:50:32.292Z,380.00
2023-01-13T00:51:32.285Z,380.00
2023-01-13T00:52:32.281Z,379.00
2023-01-13T00:53:32.271Z,381.00
2023-01-13T00:54:32.261Z,384.00
2023-01-13T00:55:32.279Z,384.00
2023-01-13T00:56:40.085Z,387.00
2023-01-13T00:57:33.244Z,388.00
2023-01-13T00:58:32.239Z,389.00
2023-01-13T00:59:32.229Z,388.00
2023-01-13T01:00:32.339Z,390.00
2023-01-13T01:01:32.423Z,392.00
2023-01-13T01:02:32.221Z,390.00
2023-01-13T01:03:32.207Z,389.00
2023-01-13T01:04:32.189Z,389.00
2023-01-13T01:05:32.168Z,390.00
2023-01-13T01:06:33.043Z,388.00
2023-01-13T01:07:32.148Z,388.00
2023-01-13T01:08:32.150Z,390.00
2023-01-13T01:09:32.135Z,392.00
2023-01-13T01:10:32.126Z,392.00
2023-01-13T01:11:32.110Z,391.00
2023-01-13T01:12:32.098Z,389.00
2023-01-13T01:13:32.092Z,389.00
2023-01-13T01:14:32.085Z,390.00
2023-01-13T01:15:32.152Z,391.00
2023-01-13T01:16:32.159Z,392.00
2023-01-13T01:17:32.059Z,394.00
2023-01-13T01:18:32.057Z,395.00
2023-01-13T01:19:32.052Z,395.00
2023-01-13T01:20:32.042Z,395.00
2023-01-13T01:21:32.035Z,396.00
2023-01-13T01:22:32.041Z,397.00
2023-01-13T01:23:32.024Z,398.00
2023-01-13T01:24:32.017Z,396.00
2023-01-13T01:25:32.014Z,393.00
2023-01-13T01:26:32.029Z,392.00
2023-01-13T01:27:32.012Z,394.00
2023-01-13T01:28:32.001Z,393.00
2023-01-13T01:29:31.998Z,394.00
2023-01-13T01:30:31.997Z,394.00
2023-01-13T01:31:32.028Z,395.00
2023-01-13T01:32:31.982Z,395.00
2023-01-13T01:33:31.970Z,394.00
2023-01-13T01:34:31.973Z,392.00
2023-01-13T01:35:31.970Z,391.00
2023-01-13T01:36:31.970Z,390.00
2023-01-13T01:37:31.955Z,391.00
2023-01-13T01:38:31.939Z,390.00
2023-01-13T01:39:31.945Z,390.00
2023-01-13T01:40:31.933Z,391.00
2023-01-13T01:41:31.947Z,391.00
2023-01-13T01:42:31.925Z,391.00
2023-01-13T01:43:31.914Z,390.00
2023-01-13T01:44:31.912Z,392.00
2023-01-13T01:45:31.923Z,392.00
2023-01-13T01:46:31.941Z,393.00
2023-01-13T01:47:31.908Z,389.00
2023-01-13T01:48:31.874Z,388.00
2023-01-13T01:49:31.867Z,388.00
2023-01-13T01:50:31.858Z,387.00
2023-01-13T01:51:31.856Z,388.00
2023-01-13T01:52:31.852Z,388.00
2023-01-13T01:53:31.859Z,387.00
2023-01-13T01:54:31.848Z,386.00
2023-01-13T01:55:31.825Z,385.00
2023-01-13T01:56:31.822Z,384.00
2023-01-13T01:57:31.814Z,384.00
2023-01-13T01:58:31.817Z,384.00
2023-01-13T01:59:31.821Z,385.00
2023-01-13T02:00:31.856Z,388.00
2023-01-13T02:01:31.968Z,389.00
2023-01-13T02:02:31.953Z,391.00
2023-01-13T02:03:31.793Z,388.00
2023-01-13T02:04:31.788Z,388.00
2023-01-13T02:05:31.792Z,388.00
2023-01-13T02:06:31.776Z,391.00
2023-01-13T02:07:31.771Z,390.00
2023-01-13T02:08:31.766Z,392.00
2023-01-13T02:09:31.759Z,392.00
2023-01-13T02:10:31.760Z,389.00
2023-01-13T02:11:31.754Z,388.00
2023-01-13T02:12:31.747Z,392.00
2023-01-13T02:13:31.750Z,393.00
2023-01-13T02:14:31.765Z,393.00
2023-01-13T02:15:31.772Z,393.00
2023-01-13T02:16:31.947Z,392.00
2023-01-13T02:17:31.763Z,392.00
2023-01-13T02:18:31.746Z,392.00
2023-01-13T02:19:31.747Z,393.00
2023-01-13T02:20:31.751Z,392.00
2023-01-13T02:21:31.733Z,392.00
2023-01-13T02:22:31.736Z,393.00
2023-01-13T02:23:31.726Z,396.00
2023-01-13T02:24:31.716Z,395.00
2023-01-13T02:25:31.718Z,393.00
2023-01-13T02:26:31.760Z,393.00
2023-01-13T02:27:31.728Z,393.00
2023-01-13T02:28:31.724Z,396.00
2023-01-13T02:29:31.690Z,395.00
2023-01-13T02:30:31.694Z,395.00
2023-01-13T02:31:31.716Z,395.00
2023-01-13T02:32:31.672Z,393.00
2023-01-13T02:49:31.582Z,390.00
2023-01-13T02:50:31.578Z,390.00
2023-01-13T02:51:31.582Z,389.00
2023-01-13T02:52:31.567Z,386.00
2023-01-13T02:53:31.555Z,387.00
2023-01-13T02:54:31.548Z,387.00
2023-01-13T02:55:31.538Z,385.00
2023-01-13T02:56:31.536Z,378.00
2023-01-13T02:57:31.527Z,377.00
2023-01-13T02:58:31.521Z,377.00
2023-01-13T02:59:31.534Z,379.00
2023-01-13T03:00:31.515Z,380.00
2023-01-13T03:01:31.570Z,382.00
2023-01-13T03:02:31.536Z,381.00
2023-01-13T03:04:31.478Z,382.00
2023-01-13T03:05:31.473Z,385.00
2023-01-13T03:06:31.459Z,385.00
2023-01-13T03:07:31.455Z,386.00
2023-01-13T03:08:31.471Z,385.00
2023-01-13T03:09:31.445Z,385.00
2023-01-13T03:10:31.441Z,381.00
2023-01-13T03:11:31.429Z,381.00
2023-01-13T03:12:31.417Z,381.00
2023-01-13T03:13:31.426Z,380.00
2023-01-13T03:14:31.415Z,381.00
2023-01-13T03:15:31.393Z,381.00
2023-01-13T03:16:31.446Z,381.00
2023-01-13T03:17:31.364Z,382.00
2023-01-13T03:18:31.355Z,380.00
2023-01-13T03:19:31.365Z,381.00
2023-01-13T03:20:31.337Z,384.00
2023-01-13T03:21:31.347Z,384.00
2023-01-13T03:22:31.337Z,386.00
2023-01-13T03:23:31.321Z,386.00
2023-01-13T03:24:31.317Z,387.00
2023-01-13T03:25:31.327Z,385.00
2023-01-13T03:26:31.299Z,387.00
2023-01-13T03:27:31.315Z,390.00
2023-01-13T03:28:31.284Z,391.00
2023-01-13T03:29:31.277Z,392.00
2023-01-13T03:30:31.310Z,391.00
2023-01-13T03:31:31.251Z,389.00
2023-01-13T03:32:31.241Z,385.00
2023-01-13T03:33:31.244Z,387.00
2023-01-13T03:34:31.302Z,389.00
2023-01-13T03:35:31.220Z,391.00
2023-01-13T03:36:31.210Z,392.00
2023-01-13T03:37:31.199Z,391.00
2023-01-13T03:38:31.184Z,392.00
2023-01-13T03:39:31.205Z,391.00
2023-01-13T03:40:31.168Z,388.00
2023-01-13T03:41:31.163Z,387.00
2023-01-13T03:42:31.155Z,388.00
2023-01-13T03:43:31.157Z,388.00
2023-01-13T03:44:32.665Z,385.00
2023-01-13T03:45:31.122Z,387.00
2023-01-13T03:46:31.114Z,385.00
2023-01-13T03:47:31.100Z,384.00
2023-01-13T03:48:31.099Z,383.00
2023-01-13T03:49:31.134Z,383.00
2023-01-13T03:50:31.076Z,385.00
2023-01-13T03:51:31.062Z,384.00
2023-01-13T03:52:31.061Z,385.00
2023-01-13T03:53:31.038Z,386.00
2023-01-13T03:54:31.030Z,386.00
2023-01-13T03:55:31.029Z,386.00
2023-01-13T03:56:31.003Z,386.00
2023-01-13T03:57:30.993Z,386.00
2023-01-13T03:58:30.984Z,385.00
2023-01-13T03:59:30.972Z,388.00
2023-01-13T04:00:30.966Z,390.00
2023-01-13T04:01:31.058Z,390.00
2023-01-13T04:02:30.948Z,392.00
2023-01-13T04:03:30.951Z,392.00
2023-01-13T04:04:30.921Z,392.00
2023-01-13T04:05:30.919Z,391.00
2023-01-13T04:06:30.901Z,392.00
2023-01-13T04:07:30.885Z,391.00
2023-01-13T04:08:30.884Z,394.00
2023-01-13T04:09:30.866Z,394.00
2023-01-13T04:10:30.858Z,393.00
2023-01-13T04:11:30.836Z,393.00
2023-01-13T04:12:30.833Z,393.00
2023-01-13T04:13:30.823Z,390.00
2023-01-13T04:14:30.819Z,385.00
2023-01-13T04:15:30.826Z,383.00
2023-01-13T04:16:30.790Z,386.00
2023-01-13T04:17:30.781Z,385.00
2023-01-13T04:18:30.784Z,383.00
2023-01-13T04:19:30.774Z,384.00
2023-01-13T04:20:30.766Z,381.00
2023-01-13T04:21:30.751Z,383.00
2023-01-13T04:22:30.749Z,383.00
2023-01-13T04:23:30.736Z,383.00
2023-01-13T04:24:30.725Z,382.00
2023-01-13T04:25:30.718Z,382.00
2023-01-13T04:26:30.714Z,384.00
2023-01-13T04:27:30.693Z,382.00
2023-01-13T04:28:30.692Z,382.00
2023-01-13T04:29:30.671Z,383.00
2023-01-13T04:30:30.710Z,387.00
2023-01-13T04:31:30.663Z,391.00
2023-01-13T04:32:30.658Z,391.00
2023-01-13T04:33:30.654Z,390.00
2023-01-13T04:34:30.647Z,390.00
2023-01-13T04:35:30.666Z,391.00
2023-01-13T04:36:30.637Z,391.00
2023-01-13T04:37:30.645Z,393.00
2023-01-13T04:38:30.624Z,391.00
2023-01-13T04:39:30.631Z,392.00
2023-01-13T04:40:30.614Z,390.00
2023-01-13T04:41:30.606Z,390.00
2023-01-13T04:42:30.605Z,391.00
2023-01-13T04:43:30.586Z,389.00
2023-01-13T04:44:30.585Z,388.00
2023-01-13T04:45:30.577Z,387.00
2023-01-13T04:46:30.613Z,387.00
2023-01-13T04:47:30.566Z,388.00
2023-01-13T04:48:30.574Z,391.00
2023-01-13T04:49:30.546Z,390.00
2023-01-13T04:50:30.542Z,390.00
2023-01-13T04:51:30.549Z,389.00
2023-01-13T04:52:30.526Z,389.00
2023-01-13T04:53:30.517Z,387.00
2023-01-13T04:54:30.516Z,387.00
2023-01-13T04:55:30.499Z,387.00
2023-01-13T04:56:30.497Z,386.00
2023-01-13T04:57:30.490Z,386.00
2023-01-13T04:58:30.500Z,386.00
2023-01-13T04:59:30.485Z,385.00
2023-01-13T05:00:30.476Z,383.00
2023-01-13T05:01:30.629Z,382.00
2023-01-13T05:02:30.459Z,382.00
2023-01-13T05:03:30.458Z,383.00
2023-01-13T05:04:30.466Z,385.00
2023-01-13T05:05:30.445Z,385.00
2023-01-13T05:06:30.441Z,387.00
2023-01-13T05:07:30.422Z,389.00
2023-01-13T05:08:30.415Z,390.00
2023-01-13T05:09:30.406Z,387.00
2023-01-13T05:10:30.397Z,382.00
2023-01-13T05:11:30.388Z,382.00
2023-01-13T05:12:30.384Z,382.00
2023-01-13T05:13:30.370Z,381.00
2023-01-13T05:14:30.369Z,380.00
2023-01-13T05:15:30.364Z,378.00
2023-01-13T05:16:30.434Z,380.00
2023-01-13T05:17:30.347Z,379.00
2023-01-13T05:18:30.340Z,378.00
2023-01-13T05:19:30.337Z,377.00
2023-01-13T05:20:30.316Z,376.00
2023-01-13T05:21:30.318Z,377.00
2023-01-13T05:22:30.286Z,375.00
2023-01-13T05:23:30.276Z,378.00
2023-01-13T05:24:30.265Z,378.00
2023-01-13T05:25:30.276Z,378.00
2023-01-13T05:26:30.269Z,380.00
2023-01-13T05:27:30.246Z,378.00
2023-01-13T05:28:30.241Z,379.00
2023-01-13T05:29:30.228Z,380.00
2023-01-13T05:30:30.240Z,380.00
2023-01-13T05:31:30.262Z,379.00
2023-01-13T05:32:30.216Z,381.00
2023-01-13T05:33:30.187Z,383.00
2023-01-13T05:34:30.177Z,386.00
2023-01-13T05:35:30.167Z,385.00
2023-01-13T05:36:30.163Z,382.00
2023-01-13T05:37:30.150Z,379.00
2023-01-13T05:38:30.169Z,377.00
2023-01-13T05:39:30.133Z,379.00
2023-01-13T05:40:30.124Z,378.00
2023-01-13T05:41:30.115Z,376.00
2023-01-13T05:42:30.125Z,378.00
2023-01-13T05:43:30.103Z,378.00
2023-01-13T05:44:30.105Z,380.00
2023-01-13T05:45:30.087Z,381.00
2023-01-13T05:46:30.145Z,382.00
2023-01-13T05:47:30.074Z,382.00
2023-01-13T05:48:30.059Z,383.00
2023-01-13T05:49:30.049Z,383.00
2023-01-13T05:50:30.047Z,382.00
2023-01-13T05:51:30.070Z,379.00
2023-01-13T05:52:30.035Z,378.00
2023-01-13T05:53:30.005Z,378.00
2023-01-13T05:54:30.001Z,377.00
2023-01-13T05:55:29.994Z,381.00
2023-01-13T05:56:29.981Z,380.00
2023-01-13T05:57:29.980Z,381.00
2023-01-13T05:58:29.960Z,383.00
2023-01-13T05:59:29.945Z,383.00
2023-01-13T06:00:29.937Z,384.00
2023-01-13T06:01:29.983Z,384.00
2023-01-13T06:02:29.916Z,385.00
2023-01-13T06:03:29.931Z,382.00
2023-01-13T06:04:29.922Z,379.00
2023-01-13T06:05:29.881Z,381.00
2023-01-13T06:06:29.878Z,378.00
2023-01-13T06:07:29.891Z,378.00
2023-01-13T06:08:29.863Z,377.00
2023-01-13T06:09:29.840Z,377.00
2023-01-13T06:10:29.845Z,375.00
2023-01-13T06:11:29.833Z,374.00
2023-01-13T06:12:29.823Z,370.00
2023-01-13T06:13:29.809Z,372.00
2023-01-13T06:14:29.811Z,373.00
2023-01-13T06:15:29.793Z,368.00
2023-01-13T06:16:29.831Z,371.00
2023-01-13T06:17:29.782Z,373.00
2023-01-13T06:18:29.774Z,375.00
2023-01-13T06:19:29.767Z,374.00
2023-01-13T06:20:29.751Z,376.00
2023-01-13T06:21:30.929Z,376.00
2023-01-13T06:22:29.882Z,376.00
2023-01-13T06:23:29.876Z,374.00
2023-01-13T06:24:29.878Z,371.00
2023-01-13T06:25:29.862Z,373.00
2023-01-13T06:26:29.849Z,372.00
2023-01-13T06:27:29.834Z,372.00
2023-01-13T06:28:29.821Z,370.00
2023-01-13T06:29:29.803Z,368.00
2023-01-13T06:30:29.806Z,367.00
2023-01-13T06:31:29.871Z,370.00
2023-01-13T06:32:29.830Z,403.00
2023-01-13T06:33:29.779Z,432.00
2023-01-13T06:34:29.779Z,456.00
2023-01-13T06:35:29.779Z,480.00
2023-01-13T06:36:29.756Z,476.00
2023-01-13T06:37:29.751Z,480.00
2023-01-13T06:38:29.738Z,539.00
2023-01-13T06:39:29.713Z,560.00
2023-01-13T06:40:29.700Z,594.00
2023-01-13T06:41:29.773Z,593.00
2023-01-13T06:42:29.688Z,595.00
2023-01-13T06:43:29.673Z,600.00
2023-01-13T06:44:29.667Z,599.00
2023-01-13T06:45:29.663Z,603.00
2023-01-13T06:46:29.682Z,867.00
2023-01-13T06:47:29.646Z,779.00
2023-01-13T06:48:29.648Z,774.00
2023-01-13T06:49:29.638Z,777.00
2023-01-13T06:50:29.638Z,783.00
2023-01-13T06:51:29.630Z,830.00
2023-01-13T06:52:29.622Z,845.00
2023-01-13T06:53:29.602Z,852.00
2023-01-13T06:54:29.586Z,889.00
2023-01-13T06:55:29.570Z,916.00
2023-01-13T06:56:29.559Z,927.00
2023-01-13T06:57:29.545Z,978.00
2023-01-13T06:58:29.541Z,986.00
2023-01-13T06:59:29.522Z,1002.00
2023-01-13T07:00:29.517Z,1024.00
2023-01-13T07:01:29.615Z,1038.00
2023-01-13T07:02:29.515Z,1073.00
2023-01-13T07:03:29.454Z,1071.00
2023-01-13T07:04:29.448Z,1077.00
2023-01-13T07:05:29.419Z,1109.00
2023-01-13T07:06:29.392Z,1118.00
2023-01-13T07:07:29.398Z,1117.00
2023-01-13T07:08:29.364Z,1121.00
2023-01-13T07:09:29.350Z,1137.00
2023-01-13T07:10:29.437Z,1171.00
2023-01-13T07:11:29.320Z,1183.00
2023-01-13T07:12:29.303Z,1207.00
2023-01-13T07:13:29.276Z,1217.00
2023-01-13T07:14:29.264Z,1230.00
2023-01-13T07:15:29.239Z,1239.00
2023-01-13T07:16:29.284Z,1256.00
2023-01-13T07:17:29.207Z,1265.00
2023-01-13T07:18:29.202Z,1276.00
2023-01-13T07:19:29.179Z,1284.00
2023-01-13T07:20:29.210Z,1321.00
2023-01-13T07:21:29.139Z,1335.00
2023-01-13T07:22:29.133Z,1339.00
2023-01-13T07:23:29.092Z,1350.00
2023-01-13T07:24:29.068Z,1357.00
2023-01-13T07:25:29.046Z,1366.00
2023-01-13T07:26:29.036Z,1373.00
2023-01-13T07:27:29.008Z,1414.00
2023-01-13T07:28:28.996Z,1430.00
2023-01-13T07:29:28.982Z,1428.00
2023-01-13T07:30:29.037Z,1433.00
2023-01-13T07:31:29.005Z,1433.00
2023-01-13T07:32:28.913Z,1447.00
2023-01-13T10:29:25.505Z,1674.00
2023-01-13T10:30:25.481Z,1674.00
2023-01-13T10:31:25.593Z,1682.00
2023-01-13T10:32:25.439Z,1699.00
2023-01-13T10:33:27.770Z,1706.00
2023-01-13T10:34:25.402Z,1725.00
2023-01-13T10:35:25.395Z,1749.00
2023-01-13T10:36:25.352Z,1781.00
2023-01-13T10:37:25.362Z,1824.00
2023-01-13T10:38:25.325Z,1825.00
2023-01-13T10:39:25.289Z,1819.00
2023-01-13T10:40:25.270Z,1817.00
2023-01-13T10:41:25.250Z,1834.00
2023-01-13T10:43:25.208Z,1148.00
2023-01-13T10:44:25.183Z,752.00
2023-01-13T10:45:25.185Z,725.00
2023-01-13T10:46:25.220Z,694.00
2023-01-13T10:47:25.172Z,667.00
2023-01-13T10:48:25.165Z,735.00
2023-01-13T10:50:25.152Z,586.00
2023-01-13T10:51:25.165Z,533.00
2023-01-13T10:52:25.257Z,538.00
2023-01-13T10:53:25.188Z,610.00
2023-01-13T10:54:25.144Z,741.00
2023-01-13T10:55:25.149Z,780.00
2023-01-13T10:56:25.148Z,814.00
2023-01-13T10:57:25.147Z,874.00
2023-01-13T10:58:25.191Z,883.00
2023-01-13T10:59:25.133Z,875.00
2023-01-13T11:00:25.123Z,875.00
2023-01-13T11:01:25.185Z,880.00
2023-01-13T11:02:26.725Z,877.00
2023-01-13T11:03:25.096Z,851.00
2023-01-13T11:04:25.096Z,708.00
2023-01-13T11:05:25.055Z,804.00
2023-01-13T11:06:25.048Z,809.00
2023-01-13T11:07:28.160Z,818.00
2023-01-13T11:08:25.038Z,827.00
2023-01-13T11:09:25.023Z,839.00
2023-01-13T11:10:25.000Z,839.00
2023-01-13T11:11:24.983Z,831.00
2023-01-13T11:12:24.960Z,780.00
2023-01-13T11:13:24.951Z,792.00
2023-01-13T11:14:24.928Z,796.00
2023-01-13T11:15:24.923Z,793.00
2023-01-13T11:16:24.927Z,789.00
2023-01-13T11:17:24.882Z,766.00
2023-01-13T11:18:24.863Z,759.00
2023-01-13T11:19:24.837Z,771.00
2023-01-13T11:20:24.826Z,772.00
2023-01-13T11:21:24.799Z,773.00
2023-01-13T11:22:24.778Z,776.00
2023-01-13T11:23:24.762Z,777.00
2023-01-13T11:24:24.733Z,755.00
2023-01-13T11:25:24.738Z,755.00
2023-01-13T11:26:24.700Z,810.00
2023-01-13T11:27:24.704Z,825.00
2023-01-13T11:28:24.676Z,851.00
2023-01-13T11:29:24.653Z,941.00
2023-01-13T11:30:24.640Z,929.00
2023-01-13T11:31:24.745Z,908.00
2023-01-13T11:32:24.608Z,921.00
2023-01-13T11:33:24.588Z,956.00
2023-01-13T11:34:24.594Z,953.00
2023-01-13T11:35:24.573Z,941.00
2023-01-13T11:36:24.541Z,918.00
2023-01-13T11:37:24.517Z,957.00
2023-01-13T11:38:24.507Z,1047.00
2023-01-13T11:39:24.481Z,1118.00
2023-01-13T11:40:24.466Z,1197.00
2023-01-13T11:41:24.449Z,1209.00
2023-01-13T11:42:24.443Z,1255.00
2023-01-13T11:43:24.417Z,1282.00
2023-01-13T11:44:24.385Z,1313.00
2023-01-13T11:45:24.360Z,1296.00
2023-01-13T11:46:24.423Z,1229.00
2023-01-13T11:47:24.335Z,1234.00
2023-01-13T11:48:24.311Z,1229.00
2023-01-13T11:49:24.304Z,1223.00
2023-01-13T11:51:24.262Z,1184.00
2023-01-13T11:52:24.242Z,1166.00
2023-01-13T11:53:24.229Z,1161.00
2023-01-13T11:54:24.207Z,1151.00
2023-01-13T11:55:24.197Z,1134.00
2023-01-13T11:57:24.147Z,1112.00
2023-01-13T11:58:24.131Z,1111.00
2023-01-13T11:59:24.137Z,1109.00
2023-01-13T12:00:24.109Z,1096.00
2023-01-13T12:01:24.127Z,1090.00
2023-01-13T12:02:24.114Z,1088.00
2023-01-13T12:03:24.186Z,1085.00
2023-01-13T12:04:24.032Z,1078.00
2023-01-13T12:05:24.007Z,1071.00
2023-01-13T12:08:23.949Z,1038.00
2023-01-13T13:02:23.075Z,896.00
2023-01-13T13:03:22.978Z,897.00
2023-01-13T13:04:22.967Z,900.00
2023-01-13T13:05:22.960Z,894.00
2023-01-13T13:06:22.975Z,877.00
2023-01-13T13:07:22.915Z,865.00
2023-01-13T13:08:22.895Z,861.00
2023-01-13T13:09:22.882Z,862.00
2023-01-13T13:10:22.856Z,864.00
2023-01-13T13:11:22.841Z,860.00
2023-01-13T13:12:22.825Z,850.00
2023-01-13T13:13:22.816Z,845.00
2023-01-13T13:14:22.799Z,843.00
2023-01-13T13:15:22.819Z,840.00
2023-01-13T13:16:22.807Z,836.00
2023-01-13T13:17:22.750Z,831.00
2023-01-13T13:18:22.767Z,825.00
2023-01-13T13:19:22.724Z,826.00
2023-01-13T13:20:22.723Z,824.00
2023-01-13T13:21:22.710Z,823.00
2023-01-13T13:22:22.713Z,811.00
2023-01-13T13:23:22.688Z,808.00
2023-01-13T13:24:22.683Z,805.00
2023-01-13T13:25:22.665Z,807.00
2023-01-13T13:26:22.660Z,803.00
2023-01-13T13:27:22.646Z,794.00
2023-01-13T13:28:22.628Z,789.00
2023-01-13T13:29:22.607Z,785.00
2023-01-13T13:30:22.596Z,787.00
2023-01-13T13:31:22.576Z,787.00
2023-01-13T13:32:22.561Z,784.00
2023-01-13T13:33:22.552Z,778.00
2023-01-13T13:34:22.538Z,773.00
2023-01-13T13:35:22.518Z,779.00
2023-01-13T13:36:22.515Z,778.00
2023-01-13T13:37:22.493Z,778.00
2023-01-13T13:38:22.481Z,781.00
2023-01-13T13:39:22.462Z,784.00
2023-01-13T13:40:22.457Z,784.00
2023-01-13T13:41:22.441Z,782.00
2023-01-13T13:42:22.431Z,782.00
2023-01-13T13:43:22.412Z,779.00
2023-01-13T13:44:22.428Z,776.00
2023-01-13T13:45:22.392Z,778.00
2023-01-13T13:46:22.473Z,780.00
2023-01-13T13:47:22.367Z,779.00
2023-01-13T13:48:22.363Z,779.00
2023-01-13T13:49:22.337Z,778.00
2023-01-13T13:50:22.326Z,772.00
2023-01-13T13:51:22.320Z,769.00
2023-01-13T13:52:22.356Z,769.00
2023-01-13T13:53:22.280Z,768.00
2023-01-13T13:54:22.284Z,768.00
2023-01-13T13:55:22.261Z,764.00
2023-01-13T13:56:22.255Z,765.00
2023-01-13T13:57:22.242Z,764.00
2023-01-13T15:28:21.206Z,675.00
2023-01-13T15:29:21.183Z,672.00
2023-01-13T15:30:21.165Z,670.00
2023-01-13T15:31:21.189Z,669.00
2023-01-13T15:32:21.136Z,669.00
2023-01-13T15:33:21.127Z,669.00
2023-01-13T15:34:21.109Z,666.00
2023-01-13T15:35:21.110Z,665.00
2023-01-13T15:36:21.088Z,664.00
2023-01-13T15:37:21.063Z,663.00
2023-01-13T15:38:21.055Z,661.00
2023-01-13T15:39:21.033Z,662.00
2023-01-13T15:40:21.039Z,665.00
2023-01-13T15:41:21.021Z,664.00
2023-01-13T15:42:20.982Z,661.00
2023-01-13T15:43:21.003Z,663.00
2023-01-13T15:44:20.980Z,661.00
2023-01-13T15:45:20.969Z,661.00
2023-01-13T15:46:21.002Z,658.00
2023-01-13T15:47:20.903Z,658.00
2023-01-13T15:48:20.903Z,656.00
2023-01-13T15:49:20.891Z,655.00
2023-01-13T15:50:20.923Z,654.00
2023-01-13T15:51:20.857Z,651.00
2023-01-13T15:52:20.842Z,648.00
2023-01-13T15:53:20.828Z,646.00
2023-01-13T15:54:20.841Z,647.00
2023-01-13T15:55:20.808Z,647.00
2023-01-13T15:56:20.793Z,648.00
2023-01-13T15:57:20.769Z,647.00
2023-01-13T15:58:20.764Z,646.00
2023-01-13T15:59:20.745Z,646.00
2023-01-13T16:00:20.736Z,644.00
2023-01-13T16:01:20.930Z,643.00
2023-01-13T16:02:20.701Z,643.00
2023-01-13T16:03:20.695Z,644.00
2023-01-13T16:04:20.666Z,644.00
2023-01-13T16:05:20.645Z,641.00
2023-01-13T16:06:20.638Z,638.00
2023-01-13T16:07:20.633Z,638.00
2023-01-13T16:08:20.617Z,638.00
2023-01-13T16:09:20.594Z,637.00
2023-01-13T16:10:20.585Z,638.00
2023-01-13T16:11:20.555Z,636.00
2023-01-13T16:12:20.553Z,638.00
2023-01-13T16:13:20.529Z,638.00
2023-01-13T16:14:20.527Z,641.00
2023-01-13T16:15:20.488Z,642.00
2023-01-13T16:16:20.505Z,642.00
2023-01-13T16:17:20.465Z,641.00
2023-01-13T16:18:20.470Z,641.00
2023-01-13T16:19:20.451Z,639.00
2023-01-13T16:20:20.438Z,638.00
2023-01-13T16:21:20.433Z,636.00
2023-01-13T16:22:20.399Z,634.00
2023-01-13T16:23:20.383Z,633.00
2023-01-13T16:24:20.377Z,632.00
2023-01-13T16:25:20.349Z,635.00
2023-01-13T16:26:20.338Z,634.00
2023-01-13T16:27:20.319Z,633.00
2023-01-13T16:28:20.313Z,631.00
2023-01-13T16:29:20.295Z,629.00
2023-01-13T16:30:20.279Z,629.00
2023-01-13T16:31:20.275Z,626.00
2023-01-13T16:32:20.259Z,625.00
2023-01-13T16:33:20.236Z,621.00
2023-01-13T16:34:20.247Z,620.00
2023-01-13T16:35:20.239Z,615.00
2023-01-13T16:36:20.216Z,614.00
2023-01-13T16:37:20.203Z,612.00
2023-01-13T16:38:20.205Z,608.00
2023-01-13T16:39:20.205Z,611.00
2023-01-13T16:40:20.195Z,613.00
2023-01-13T16:41:20.181Z,614.00
2023-01-13T16:42:20.170Z,614.00
2023-01-13T16:43:20.173Z,615.00
2023-01-13T16:44:20.190Z,614.00
2023-01-13T16:45:20.156Z,615.00
2023-01-13T16:46:20.137Z,615.00
2023-01-13T16:47:20.160Z,613.00
2023-01-13T16:48:20.119Z,612.00
2023-01-13T16:49:20.107Z,612.00
2023-01-13T16:50:22.613Z,614.00
2023-01-13T16:51:20.091Z,610.00
2023-01-13T16:52:20.086Z,613.00
2023-01-13T16:53:20.077Z,613.00
2023-01-13T16:54:20.065Z,612.00
2023-01-13T16:55:20.072Z,611.00
2023-01-13T16:56:20.880Z,610.00
2023-01-13T16:57:20.048Z,610.00
2023-01-13T16:58:20.035Z,610.00
2023-01-13T16:59:20.026Z,611.00
2023-01-13T17:00:20.015Z,606.00
2023-01-13T17:01:20.085Z,604.00
2023-01-13T17:02:21.108Z,602.00
2023-01-13T17:03:20.004Z,599.00
2023-01-13T17:04:19.962Z,599.00
2023-01-13T17:05:19.962Z,599.00
2023-01-13T17:06:20.046Z,596.00
2023-01-13T17:07:19.960Z,595.00
2023-01-13T17:08:19.932Z,594.00
2023-01-13T17:09:19.928Z,593.00
2023-01-13T17:10:19.907Z,594.00
2023-01-13T17:11:19.911Z,598.00
2023-01-13T17:12:19.901Z,599.00
2023-01-13T17:13:19.898Z,596.00
2023-01-13T17:14:19.908Z,597.00
2023-01-13T17:15:19.884Z,597.00
2023-01-13T17:16:19.902Z,599.00
2023-01-13T17:17:19.863Z,598.00
2023-01-13T17:18:19.845Z,599.00
2023-01-13T17:19:19.839Z,600.00
2023-01-13T17:20:19.815Z,600.00
2023-01-13T17:21:19.817Z,598.00
2023-01-13T17:22:19.805Z,598.00
2023-01-13T17:23:19.788Z,596.00
2023-01-13T17:24:19.789Z,597.00
2023-01-13T17:25:19.772Z,599.00
2023-01-13T17:26:19.752Z,594.00
2023-01-13T17:27:19.740Z,593.00
2023-01-13T17:28:19.734Z,591.00
2023-01-13T17:29:19.736Z,591.00
2023-01-13T17:30:19.797Z,588.00
2023-01-13T17:31:19.734Z,584.00
2023-01-13T17:32:19.697Z,583.00
2023-01-13T17:33:19.675Z,581.00
2023-01-13T17:34:19.689Z,581.00
2023-01-13T17:35:19.673Z,578.00
2023-01-13T17:36:19.638Z,575.00
2023-01-13T17:37:19.647Z,572.00
2023-01-13T17:38:19.788Z,572.00
2023-01-13T17:39:19.622Z,574.00
2023-01-13T17:40:19.610Z,576.00
2023-01-13T17:41:19.601Z,579.00
2023-01-13T17:42:19.580Z,581.00
2023-01-13T17:43:19.581Z,583.00
2023-01-13T17:44:19.557Z,582.00
2023-01-13T17:45:19.556Z,580.00
2023-01-13T17:46:19.540Z,578.00
2023-01-13T17:47:19.523Z,575.00
2023-01-13T17:48:19.504Z,578.00
2023-01-13T17:49:19.506Z,579.00
2023-01-13T17:50:19.481Z,578.00
2023-01-13T17:51:19.491Z,581.00
2023-01-13T17:52:19.451Z,581.00
2023-01-13T17:53:19.452Z,580.00
2023-01-13T17:54:19.483Z,578.00
2023-01-13T17:55:19.421Z,577.00
2023-01-13T17:56:19.402Z,576.00
2023-01-13T17:57:19.391Z,573.00
2023-01-13T17:58:19.368Z,572.00
2023-01-13T17:59:19.357Z,572.00
2023-01-13T18:00:19.331Z,573.00
2023-01-13T18:01:19.408Z,572.00
2023-01-13T18:02:19.486Z,573.00
2023-01-13T18:03:19.300Z,575.00
2023-01-13T18:04:19.287Z,573.00
2023-01-13T18:05:19.265Z,574.00
2023-01-13T18:06:19.246Z,573.00
2023-01-13T18:07:19.223Z,570.00
2023-01-13T18:08:19.215Z,567.00